Página principal
METAR-TAF:

METAR-TAF

Aeroportos :

Aeroporto Internacional Diori Hamani

Niamey, Níger

latitude: 13-29N, longitude: 002-10E, altura: 223 m

Observação actual do tempo

O boletim foi feito há 49 minutos, às 17:00 UTC
Vento 7 kt de es-nordeste
Temperatura 36°C
Humidade 8%
Pressão 1008 hPa
Visibilidade: 8000 m

METAR: DRRN 131700Z 07007KT 8000 NSC 36/M03 Q1008 NOSIG

Hora: 18:49 (17:49 UTC)

Previsão

O boletim foi feito há 49 minutos, às 17:00 UTC
Previsão válida de 13 às 18 UTC a 14 às 24 UTC
Vento 8 kt de este
Visibilidade: 8000 m
Temporariamente
de 13 às 18 UTC a 13 às 20 UTC
Visibilidade: 4500 m
poeira extensa
Temporariamente
de 14 às 06 UTC a 14 às 09 UTC
Visibilidade: 4000 m
poeira extensa

TAF: DRRN 131700Z 1318/1424 08008KT 8000 NSC TEMPO 1318/1320 4500 DU TEMPO 1406/1409 4000 DU

Observações e previsões do tempo de mais de 4000 aeroportos (mensagens METAR e TAF).

As estações disponíveis são os pontos amarelos e vermelhos sobre o mapa.

Mova o rato sobre o mapa para ver o nome da estação.

Depois clique no ponto para visualizar as observações e previsões meteorológicas.

Para alterar o mapa : clique nos botões verdes com uma cruz preta para aumentar o zoom; no botão verde com uma pitada de zoom; ou nas setas verdes para mapas adjacentes.


METAR-TAF: